Time;durP1;ratioP1;P1;durP2;ratioP2;P2;SDS_P1;SDS_P2;PMS_P1;PMS_P2;Temp;Humidity;BMP_temperature;BMP_pressure;BME280_temperature;BME280_humidity;BME280_pressure;Samples;Min_cycle;Max_cycle;Signal;HPM_P1;HPM_P2
2023/04/24 00:01:00;;;;;;;22.90;14.60;;;;;;;12.79;61.70;99795.70;106164;1261;99223;-80
2023/04/24 00:03:46;;;;;;;21.30;15.00;;;;;;;12.75;61.83;99793.38;106194;1263;98504;-80
2023/04/24 00:06:36;;;;;;;20.90;15.10;;;;;;;12.71;62.06;99790.19;106030;1260;96663;-80
2023/04/24 00:09:23;;;;;;;20.80;15.80;;;;;;;12.65;62.08;99786.06;105926;1265;97541;-80
2023/04/24 00:12:09;;;;;;;22.00;15.60;;;;;;;12.59;62.39;99782.73;105569;1265;99961;-79
2023/04/24 00:14:55;;;;;;;22.40;16.40;;;;;;;12.51;62.55;99779.41;105641;1265;99141;-79
2023/04/24 00:17:40;;;;;;;25.60;15.60;;;;;;;12.40;62.95;99775.40;105673;1261;97914;-79
2023/04/24 00:20:29;;;;;;;25.20;18.10;;;;;;;12.32;63.21;99766.54;105725;1265;96540;-80
2023/04/24 00:23:14;;;;;;;24.10;16.50;;;;;;;12.28;63.14;99763.92;105773;1261;97017;-79
2023/04/24 00:25:59;;;;;;;26.30;16.50;;;;;;;12.24;63.51;99760.89;105610;1263;101336;-79
2023/04/24 00:28:45;;;;;;;25.00;17.00;;;;;;;12.21;63.70;99756.66;105692;1262;100465;-80
2023/04/24 00:31:31;;;;;;;21.00;16.50;;;;;;;12.18;63.91;99757.38;105669;1263;97726;-79
2023/04/24 00:34:18;;;;;;;19.50;15.30;;;;;;;12.18;64.36;99759.45;105685;1265;96645;-79
2023/04/24 00:37:03;;;;;;;25.30;15.80;;;;;;;12.14;64.27;99763.77;105558;1268;97476;-79
2023/04/24 00:39:48;;;;;;;21.40;17.30;;;;;;;12.06;64.44;99765.88;105635;1262;100088;-79
2023/04/24 00:42:34;;;;;;;25.40;17.60;;;;;;;11.96;64.73;99766.81;105681;1265;99095;-80
2023/04/24 00:45:20;;;;;;;24.40;17.40;;;;;;;11.88;64.66;99763.89;106045;1262;97811;-79
2023/04/24 00:48:06;;;;;;;20.70;16.20;;;;;;;11.82;64.99;99766.16;106050;1263;97103;-79
2023/04/24 00:50:52;;;;;;;26.00;17.30;;;;;;;11.77;65.19;99767.51;105815;1262;96587;-79
2023/04/24 00:53:37;;;;;;;23.60;17.00;;;;;;;11.74;65.26;99763.77;105338;1265;99981;-79
2023/04/24 00:56:23;;;;;;;20.70;16.10;;;;;;;11.72;65.26;99762.38;105329;1265;100873;-80
2023/04/24 00:59:09;;;;;;;26.00;18.10;;;;;;;11.72;65.36;99758.88;105284;1264;98489;-80
2023/04/24 01:01:56;;;;;;;26.00;17.30;;;;;;;11.70;65.31;99756.11;105301;1265;96742;-80
2023/04/24 01:04:42;;;;;;;45.60;28.20;;;;;;;11.66;65.44;99755.77;105158;1262;97126;-79
2023/04/24 01:07:28;;;;;;;33.40;23.10;;;;;;;11.59;65.71;99756.80;105374;1262;102168;-78
2023/04/24 01:10:14;;;;;;;38.80;22.30;;;;;;;11.56;65.82;99753.75;105452;1262;99807;-79
2023/04/24 01:13:00;;;;;;;33.30;21.20;;;;;;;11.53;65.78;99752.31;105247;1263;98976;-78
2023/04/24 01:28:23;;;;;;;31.40;21.60;;;;;;;11.89;65.53;99749.95;103882;1283;639440;-80
2023/04/24 01:31:08;;;;;;;28.20;19.50;;;;;;;11.92;65.21;99746.15;104912;1272;110860;-78
2023/04/24 01:33:55;;;;;;;28.40;20.10;;;;;;;11.72;65.19;99744.87;105022;1263;95912;-79
2023/04/24 01:36:42;;;;;;;28.10;19.10;;;;;;;11.59;65.41;99742.72;105169;1266;98685;-79
2023/04/24 01:39:28;;;;;;;28.20;19.10;;;;;;;11.49;65.51;99738.66;105178;1266;99641;-79
2023/04/24 01:42:14;;;;;;;24.70;18.10;;;;;;;11.39;65.78;99738.40;105148;1269;98898;-78
2023/04/24 01:45:01;;;;;;;24.30;18.30;;;;;;;11.31;66.02;99740.08;105141;1269;95956;-78
2023/04/24 01:47:49;;;;;;;24.90;17.00;;;;;;;11.24;66.19;99737.02;105625;1260;96858;-78
2023/04/24 01:50:36;;;;;;;21.30;16.60;;;;;;;11.16;66.41;99734.52;105747;1261;98540;-79
2023/04/24 01:53:22;;;;;;;25.90;18.20;;;;;;;11.07;66.56;99734.39;105628;1262;100314;-79
2023/04/24 01:56:08;;;;;;;22.50;15.90;;;;;;;10.99;66.72;99735.65;105636;1261;97736;-78
2023/04/24 01:58:55;;;;;;;20.80;17.10;;;;;;;10.93;66.96;99735.99;105510;1263;97168;-78
2023/04/24 02:01:40;;;;;;;22.10;17.30;;;;;;;10.86;67.00;99737.83;105531;1260;95880;-79
2023/04/24 02:04:26;;;;;;;21.10;15.80;;;;;;;10.78;67.04;99736.57;105499;1261;98678;-78
2023/04/24 02:07:12;;;;;;;22.80;17.00;;;;;;;10.73;67.33;99732.97;105549;1261;100763;-79
2023/04/24 02:09:57;;;;;;;24.70;16.00;;;;;;;10.69;67.63;99728.67;106111;1257;98986;-78
2023/04/24 02:12:43;;;;;;;22.30;15.70;;;;;;;10.65;67.53;99723.98;105582;1261;96242;-79
2023/04/24 02:15:28;;;;;;;31.70;16.50;;;;;;;10.61;67.70;99719.66;105538;1260;95885;-77
2023/04/24 02:18:15;;;;;;;22.10;15.90;;;;;;;10.60;67.96;99711.25;105559;1258;98675;-78
2023/04/24 02:21:00;;;;;;;21.70;16.20;;;;;;;10.58;67.68;99710.85;105562;1261;99092;-79
2023/04/24 02:23:46;;;;;;;22.20;16.70;;;;;;;10.54;67.94;99708.98;105506;1270;98340;-79
2023/04/24 02:26:32;;;;;;;24.80;17.00;;;;;;;10.52;67.96;99704.09;105588;1257;96187;-79
2023/04/24 02:29:18;;;;;;;22.00;17.20;;;;;;;10.52;68.24;99699.90;105671;1260;96906;-78
2023/04/24 02:32:04;;;;;;;24.40;17.00;;;;;;;10.51;68.36;99696.06;105628;1261;98682;-78
2023/04/24 02:34:49;;;;;;;21.00;16.10;;;;;;;10.48;68.17;99694.13;105617;1261;100204;-78
2023/04/24 02:37:35;;;;;;;21.60;16.30;;;;;;;10.47;68.07;99692.84;105539;1261;98952;-77
2023/04/24 02:40:21;;;;;;;19.50;16.00;;;;;;;10.46;68.44;99693.26;105677;1258;96487;-79
2023/04/24 02:43:06;;;;;;;19.10;15.20;;;;;;;10.46;68.50;99692.96;105528;1260;95970;-78
2023/04/24 02:45:51;;;;;;;23.20;15.60;;;;;;;10.44;68.63;99690.73;105481;1257;98630;-77
2023/04/24 02:48:37;;;;;;;22.20;15.50;;;;;;;10.41;68.72;99688.54;105524;1257;99800;-79
2023/04/24 02:51:22;;;;;;;25.60;16.10;;;;;;;10.37;68.88;99689.03;105600;1258;97739;-79
2023/04/24 02:54:11;;;;;;;20.80;15.00;;;;;;;10.33;68.84;99688.17;105424;1264;96797;-79
2023/04/24 02:56:57;;;;;;;18.20;14.40;;;;;;;10.30;69.20;99686.34;105586;1261;96180;-79
2023/04/24 02:59:43;;;;;;;23.50;15.20;;;;;;;10.28;69.19;99686.41;105574;1261;98619;-79
2023/04/24 03:02:28;;;;;;;19.00;14.50;;;;;;;10.25;69.23;99683.20;105570;1257;99858;-78
2023/04/24 03:05:14;;;;;;;21.60;15.10;;;;;;;10.23;69.03;99680.48;105569;1260;107287;-78
2023/04/24 03:07:59;;;;;;;20.50;14.60;;;;;;;10.21;69.18;99682.00;105616;1261;95967;-78
2023/04/24 03:10:46;;;;;;;24.80;16.00;;;;;;;10.20;69.64;99683.73;105542;1257;96137;-78
2023/04/24 03:13:31;;;;;;;24.70;15.90;;;;;;;10.16;69.44;99685.34;105574;1258;99955;-78
2023/04/24 03:16:17;;;;;;;30.30;15.60;;;;;;;10.12;69.82;99683.20;105554;1261;99184;-78
2023/04/24 03:19:03;;;;;;;21.60;15.80;;;;;;;10.06;69.72;99687.81;106239;1264;97707;-78
2023/04/24 03:21:50;;;;;;;18.90;15.40;;;;;;;10.00;70.07;99686.20;105139;1260;95986;-77
2023/04/24 03:24:35;;;;;;;20.80;15.30;;;;;;;9.95;70.29;99685.38;105110;1267;96690;-77
2023/04/24 03:27:21;;;;;;;23.80;16.60;;;;;;;9.93;70.45;99686.61;105141;1284;98637;-78
2023/04/24 03:30:13;;;;;;;26.10;16.50;;;;;;;9.88;70.45;99685.38;105728;1257;99187;-78
2023/04/24 03:33:09;;;;;;;23.60;16.50;;;;;;;9.85;70.88;99689.45;105424;1261;97709;-78
2023/04/24 03:35:57;;;;;;;22.50;16.60;;;;;;;9.84;70.98;99693.36;105365;1259;96818;-79
2023/04/24 03:38:43;;;;;;;23.10;17.20;;;;;;;9.84;71.13;99694.59;105629;1258;95822;-79
2023/04/24 03:41:48;;;;;;;22.80;16.90;;;;;;;9.85;71.31;99695.95;105567;1257;99297;-78
2023/04/24 03:44:38;;;;;;;23.00;17.00;;;;;;;9.82;71.34;99699.91;105672;1257;100353;-78
2023/04/24 03:47:24;;;;;;;24.50;16.70;;;;;;;9.81;71.30;99700.22;105515;1263;97825;-79
2023/04/24 03:50:09;;;;;;;26.30;16.20;;;;;;;9.82;71.61;99700.09;105555;1261;95883;-78
2023/04/24 03:52:55;;;;;;;25.00;16.10;;;;;;;9.82;71.71;99695.73;105560;1261;97114;-78
2023/04/24 03:55:51;;;;;;;27.00;16.80;;;;;;;9.82;71.87;99690.97;105615;1258;100059;-77
2023/04/24 03:58:37;;;;;;;22.20;16.20;;;;;;;9.79;71.88;99692.20;105608;1258;100314;-77
2023/04/24 04:01:24;;;;;;;22.80;16.80;;;;;;;9.77;71.68;99692.36;105541;1261;97724;-77
2023/04/24 04:04:20;;;;;;;24.90;16.80;;;;;;;9.75;72.14;99696.84;105528;1257;95912;-78
2023/04/24 04:07:06;;;;;;;23.80;17.80;;;;;;;9.76;72.41;99694.25;105500;1257;95939;-78
2023/04/24 04:09:51;;;;;;;28.20;18.20;;;;;;;9.75;72.48;99693.98;105520;1260;98645;-78
2023/04/24 04:12:37;;;;;;;26.10;18.60;;;;;;;9.76;72.99;99690.88;105507;1264;100243;-78
2023/04/24 04:15:23;;;;;;;30.30;19.10;;;;;;;9.78;73.00;99688.70;105456;1264;98591;-79
2023/04/24 04:18:09;;;;;;;25.70;18.00;;;;;;;9.81;73.43;99687.63;106311;1257;95836;-78
2023/04/24 04:20:56;;;;;;;28.90;18.00;;;;;;;9.84;73.88;99688.05;105618;1258;96209;-78
2023/04/24 04:23:42;;;;;;;24.80;18.10;;;;;;;9.87;74.09;99684.77;105553;1260;99182;-78
2023/04/24 04:26:33;;;;;;;25.00;18.40;;;;;;;9.89;74.13;99690.56;105552;1261;100462;-80
2023/04/24 04:29:22;;;;;;;24.10;16.90;;;;;;;9.90;74.18;99690.23;105565;1257;97769;-78
2023/04/24 04:32:09;;;;;;;28.80;19.10;;;;;;;9.93;74.51;99689.83;105469;1256;95994;-78
2023/04/24 04:34:54;;;;;;;22.40;16.90;;;;;;;9.97;74.62;99688.31;105600;1256;95858;-79
2023/04/24 04:37:41;;;;;;;27.70;18.40;;;;;;;10.05;74.98;99685.92;105856;1259;98684;-80
2023/04/24 04:40:45;;;;;;;23.40;18.20;;;;;;;10.14;75.93;99684.92;105815;1260;100269;-80
2023/04/24 04:43:32;;;;;;;25.10;18.60;;;;;;;10.23;76.61;99685.45;106138;1256;98445;-80
2023/04/24 04:46:18;;;;;;;25.10;18.00;;;;;;;10.33;77.04;99685.09;106343;1261;95922;-78
2023/04/24 04:49:21;;;;;;;33.80;19.60;;;;;;;10.44;77.59;99683.79;105899;1256;95875;-80
2023/04/24 04:52:07;;;;;;;27.80;19.80;;;;;;;10.54;78.53;99684.15;106301;1256;99398;-80
2023/04/24 04:54:53;;;;;;;27.70;19.60;;;;;;;10.66;79.17;99678.45;106369;1257;99112;-80
2023/04/24 04:57:40;;;;;;;24.30;18.60;;;;;;;10.78;79.10;99677.95;106607;1256;98440;-79
2023/04/24 05:00:27;;;;;;;23.00;17.20;;;;;;;10.91;78.61;99678.66;106387;1256;95964;-79
2023/04/24 05:03:13;;;;;;;23.00;16.20;;;;;;;11.05;78.40;99676.02;106296;1260;96038;-79
2023/04/24 05:05:59;;;;;;;31.50;16.30;;;;;;;11.20;77.74;99679.00;106325;1257;98620;-80
2023/04/24 05:08:45;;;;;;;19.50;16.10;;;;;;;11.31;77.21;99678.13;105961;1259;99808;-80
2023/04/24 05:11:40;;;;;;;22.40;15.70;;;;;;;11.42;76.98;99675.85;106341;1257;97750;-79
2023/04/24 05:14:25;;;;;;;25.50;16.90;;;;;;;11.49;76.72;99673.21;106336;1257;95808;-80
2023/04/24 05:17:11;;;;;;;18.90;16.00;;;;;;;11.55;76.73;99671.80;106116;1260;95980;-80
2023/04/24 05:19:56;;;;;;;19.30;16.60;;;;;;;11.61;76.32;99672.35;106304;1257;98642;-80
2023/04/24 05:22:42;;;;;;;25.90;16.50;;;;;;;11.68;76.02;99672.01;106430;1260;99091;-80
2023/04/24 05:25:27;;;;;;;27.30;17.10;;;;;;;11.73;75.62;99668.72;106335;1260;97751;-79
2023/04/24 05:28:18;;;;;;;25.10;17.60;;;;;;;11.79;75.97;99668.84;106282;1257;95924;-79
2023/04/24 05:31:06;;;;;;;28.30;17.20;;;;;;;11.84;75.47;99665.76;105915;1256;95902;-79
2023/04/24 05:33:52;;;;;;;24.70;17.70;;;;;;;11.90;75.62;99666.33;106402;1260;99915;-79
2023/04/24 05:36:37;;;;;;;26.80;18.10;;;;;;;11.97;76.25;99666.40;106591;1256;99994;-79
2023/04/24 05:39:24;;;;;;;26.30;18.60;;;;;;;12.03;76.69;99667.23;106503;1256;98455;-80
2023/04/24 05:42:10;;;;;;;24.30;18.30;;;;;;;12.13;76.84;99663.71;106405;1256;96025;-80
2023/04/24 05:44:55;;;;;;;27.50;17.90;;;;;;;12.24;76.75;99672.95;106588;1257;95861;-79
2023/04/24 05:47:41;;;;;;;25.30;17.90;;;;;;;12.35;76.59;99673.30;106571;1256;98657;-80
2023/04/24 05:50:26;;;;;;;30.00;17.30;;;;;;;12.46;76.41;99675.40;106526;1256;99062;-80
2023/04/24 05:53:12;;;;;;;24.30;17.30;;;;;;;12.58;76.42;99677.77;106432;1259;97691;-80
2023/04/24 05:55:57;;;;;;;23.00;17.20;;;;;;;12.69;75.99;99678.72;106437;1260;95938;-81
2023/04/24 05:58:43;;;;;;;25.30;17.30;;;;;;;12.79;75.70;99674.48;106374;1256;96176;-78
2023/04/24 06:01:29;;;;;;;24.30;16.90;;;;;;;12.88;75.66;99675.70;106245;1260;98648;-79
2023/04/24 06:04:24;;;;;;;25.70;17.20;;;;;;;12.96;75.25;99670.16;105710;1260;99173;-79
2023/04/24 06:07:11;;;;;;;25.80;15.60;;;;;;;13.02;74.66;99666.95;105599;1256;97727;-78
2023/04/24 06:09:57;;;;;;;24.70;15.40;;;;;;;13.07;74.46;99660.49;106176;1260;96669;-80
2023/04/24 06:12:42;;;;;;;23.30;16.40;;;;;;;13.12;74.21;99663.53;106245;1256;97127;-79
2023/04/24 06:15:34;;;;;;;20.50;15.10;;;;;;;13.21;74.16;99661.07;106540;1260;100081;-80
2023/04/24 06:18:25;;;;;;;22.90;16.80;;;;;;;13.33;74.24;99660.13;106790;1256;99731;-80
2023/04/24 06:21:10;;;;;;;22.90;15.70;;;;;;;13.43;73.72;99659.86;106531;1261;98481;-80
2023/04/24 06:23:56;;;;;;;20.70;15.60;;;;;;;13.53;73.35;99659.21;106429;1256;96674;-80
2023/04/24 06:26:42;;;;;;;24.70;17.00;;;;;;;13.62;73.27;99652.14;106638;1257;96519;-80
2023/04/24 06:29:27;;;;;;;18.50;14.10;;;;;;;13.72;73.04;99651.02;106480;1256;101119;-80
2023/04/24 06:32:12;;;;;;;21.70;15.30;;;;;;;13.83;73.24;99651.13;106432;1260;99785;-80
2023/04/24 06:34:58;;;;;;;20.40;14.90;;;;;;;13.94;73.27;99647.64;106654;1256;98970;-80
2023/04/24 06:37:43;;;;;;;24.00;14.50;;;;;;;14.07;72.78;99641.72;106432;1260;96522;-80
2023/04/24 06:40:29;;;;;;;21.90;14.50;;;;;;;14.20;72.25;99636.70;106450;1256;96604;-79
2023/04/24 06:43:15;;;;;;;18.20;13.80;;;;;;;14.34;72.67;99627.35;106149;1257;99991;-80
2023/04/24 06:46:02;;;;;;;19.70;14.60;;;;;;;14.42;71.16;99617.95;106513;1260;99087;-80
2023/04/24 06:48:47;;;;;;;19.60;12.90;;;;;;;14.51;71.16;99617.55;106474;1256;97732;-80
2023/04/24 06:51:33;;;;;;;19.40;13.00;;;;;;;14.61;70.99;99612.99;106393;1260;96677;-79
2023/04/24 06:54:18;;;;;;;19.80;13.70;;;;;;;14.71;71.00;99614.06;105782;1256;97064;-79
2023/04/24 06:57:04;;;;;;;21.00;13.70;;;;;;;14.77;71.49;99614.95;105793;1259;99991;-78
2023/04/24 06:59:49;;;;;;;19.80;13.50;;;;;;;14.80;71.01;99616.95;105818;1258;99074;-79
2023/04/24 07:02:35;;;;;;;20.00;13.10;;;;;;;14.82;71.22;99625.29;105729;1256;97855;-79
2023/04/24 07:05:20;;;;;;;19.50;13.40;;;;;;;14.84;71.41;99637.19;105866;1256;96584;-78
2023/04/24 07:08:06;;;;;;;21.80;14.60;;;;;;;14.86;72.96;99647.66;105741;1256;96850;-79
2023/04/24 07:10:52;;;;;;;23.90;16.00;;;;;;;14.87;73.69;99654.05;105722;1260;100089;-79
2023/04/24 07:13:41;;;;;;;20.70;15.40;;;;;;;14.89;73.99;99656.30;105666;1257;99086;-79
2023/04/24 07:16:26;;;;;;;20.00;15.30;;;;;;;14.91;74.27;99652.02;105736;1256;98959;-79
2023/04/24 07:19:13;;;;;;;24.20;15.10;;;;;;;14.94;73.94;99654.66;107930;1256;94674;-90
2023/04/24 07:21:58;;;;;;;19.30;14.60;;;;;;;14.98;74.33;99658.52;107286;1255;96687;-83
2023/04/24 07:24:44;;;;;;;16.10;14.40;;;;;;;15.02;74.73;99658.67;106500;1256;101251;-86
2023/04/24 07:27:30;;;;;;;24.50;14.80;;;;;;;15.07;74.50;99657.70;106568;1256;99985;-80
2023/04/24 07:30:15;;;;;;;25.50;15.30;;;;;;;15.13;74.83;99649.95;106451;1256;98944;-76
2023/04/24 07:33:01;;;;;;;24.50;15.50;;;;;;;15.18;74.24;99648.48;105303;1256;96629;-77
2023/04/24 07:35:47;;;;;;;16.70;14.10;;;;;;;15.24;74.01;99650.44;105300;1260;96630;-77
2023/04/24 07:38:33;;;;;;;19.00;14.60;;;;;;;15.30;73.59;99657.10;105550;1260;101247;-77
2023/04/24 07:41:18;;;;;;;22.80;14.50;;;;;;;15.37;73.56;99657.29;105355;1256;99688;-77
2023/04/24 07:44:04;;;;;;;22.80;15.20;;;;;;;15.44;73.29;99651.89;105430;1256;99018;-77
2023/04/24 07:46:50;;;;;;;20.30;14.80;;;;;;;15.50;72.90;99648.88;105589;1260;96603;-77
2023/04/24 07:49:36;;;;;;;24.80;15.20;;;;;;;15.55;72.35;99643.02;105577;1256;96557;-77
2023/04/24 07:52:21;;;;;;;20.10;14.40;;;;;;;15.60;72.54;99639.88;106095;1258;101158;-86
2023/04/24 07:55:08;;;;;;;20.20;15.00;;;;;;;15.66;72.62;99636.91;106920;1260;99068;-88
2023/04/24 07:57:53;;;;;;;21.20;15.10;;;;;;;15.74;72.59;99635.11;106095;1260;97707;-83
2023/04/24 08:00:39;;;;;;;21.30;15.20;;;;;;;15.84;72.32;99632.78;106715;1260;96815;-80
2023/04/24 08:03:24;;;;;;;22.00;16.50;;;;;;;16.02;72.61;99634.77;106532;1256;96493;-79
2023/04/24 08:06:10;;;;;;;19.10;14.00;;;;;;;16.25;71.36;99633.20;106110;1257;99972;-79
2023/04/24 08:08:59;;;;;;;22.50;14.00;;;;;;;16.49;70.43;99633.38;105908;1259;99085;-79
2023/04/24 08:11:45;;;;;;;19.30;13.90;;;;;;;16.69;69.88;99633.17;106098;1260;97718;-78
2023/04/24 08:14:30;;;;;;;22.60;13.00;;;;;;;16.86;69.20;99634.92;105970;1256;95853;-79
2023/04/24 08:17:17;;;;;;;19.40;13.00;;;;;;;17.01;68.06;99631.86;106239;1256;96806;-80
2023/04/24 08:20:04;;;;;;;14.90;11.70;;;;;;;17.14;67.45;99631.80;106165;1260;99981;-80
2023/04/24 08:22:50;;;;;;;24.40;12.90;;;;;;;17.27;67.42;99627.91;107356;1257;99076;-80
2023/04/24 08:25:36;;;;;;;15.70;11.90;;;;;;;17.43;67.30;99629.86;106745;1260;97662;-79
2023/04/24 08:28:21;;;;;;;22.10;11.80;;;;;;;17.57;66.53;99630.52;105991;1260;96607;-79
2023/04/24 08:31:07;;;;;;;15.80;11.60;;;;;;;17.70;66.14;99626.66;105900;1256;97097;-78
2023/04/24 08:33:52;;;;;;;17.80;10.80;;;;;;;17.83;65.51;99622.21;105799;1256;99975;-78
2023/04/24 08:36:40;;;;;;;13.50;10.70;;;;;;;17.95;65.68;99622.23;106241;1256;99970;-81
2023/04/24 08:39:25;;;;;;;19.20;12.40;;;;;;;18.09;65.43;99623.20;106830;1256;97702;-82
2023/04/24 08:42:12;;;;;;;17.30;10.80;;;;;;;18.22;63.94;99623.05;107015;1256;96603;-82
2023/04/24 08:44:57;;;;;;;15.20;9.90;;;;;;;18.30;62.68;99621.42;107058;1256;96913;-82
2023/04/24 08:47:44;;;;;;;12.10;10.40;;;;;;;18.41;62.67;99622.91;106797;1257;101440;-81
2023/04/24 08:50:31;;;;;;;16.20;10.80;;;;;;;18.52;62.12;99617.41;107055;1256;100355;-81
2023/04/24 08:53:19;;;;;;;15.60;10.40;;;;;;;18.65;61.93;99613.54;106979;1256;98981;-80
2023/04/24 08:56:05;;;;;;;13.10;9.60;;;;;;;18.79;60.96;99611.34;106988;1260;96585;-82
2023/04/24 08:58:51;;;;;;;16.30;8.60;;;;;;;18.91;60.22;99613.29;106983;1256;96500;-81
2023/04/24 09:01:39;;;;;;;11.60;9.00;;;;;;;19.03;59.34;99611.88;107125;1256;108605;-81
2023/04/24 09:04:26;;;;;;;13.30;9.30;;;;;;;19.12;59.40;99609.67;107154;1256;99180;-82
2023/04/24 09:07:14;;;;;;;14.40;9.20;;;;;;;19.20;58.70;99609.61;106997;1258;98469;-81
2023/04/24 09:10:01;;;;;;;15.80;9.30;;;;;;;19.26;57.17;99607.34;106971;1256;97485;-81
2023/04/24 09:12:47;;;;;;;18.10;8.10;;;;;;;19.32;56.63;99609.70;107147;1255;96608;-81
2023/04/24 09:15:32;;;;;;;14.10;8.40;;;;;;;19.39;56.59;99611.59;106947;1255;99934;-81
2023/04/24 09:18:19;;;;;;;12.60;9.20;;;;;;;19.46;56.82;99608.13;107117;1256;99266;-80
2023/04/24 09:21:08;;;;;;;9.60;6.90;;;;;;;19.55;55.78;99606.25;106736;1260;97765;-81
2023/04/24 09:24:02;;;;;;;9.50;5.20;;;;;;;19.66;55.15;99606.20;106765;1256;97208;-80
2023/04/24 09:26:49;;;;;;;6.20;5.10;;;;;;;19.76;53.40;99600.52;107074;1256;95999;-80
2023/04/24 09:29:34;;;;;;;9.80;6.00;;;;;;;19.87;52.84;99601.39;106954;1255;99980;-81
2023/04/24 09:32:21;;;;;;;9.50;6.50;;;;;;;19.96;52.43;99599.39;106927;1256;99041;-81
2023/04/24 09:35:12;;;;;;;8.90;6.00;;;;;;;20.04;52.60;99600.91;106697;1256;97798;-78
2023/04/24 09:37:57;;;;;;;9.60;6.30;;;;;;;20.15;52.71;99599.88;106913;1256;96625;-80
2023/04/24 09:40:43;;;;;;;8.40;5.70;;;;;;;20.27;52.41;99599.50;106561;1256;97032;-80
2023/04/24 09:43:30;;;;;;;6.20;4.90;;;;;;;20.37;51.24;99596.01;106684;1256;101310;-81
2023/04/24 09:46:18;;;;;;;6.30;4.60;;;;;;;20.45;50.40;99592.35;106575;1258;99943;-81
2023/04/24 09:49:13;;;;;;;5.20;4.40;;;;;;;20.54;50.19;99589.39;106410;1256;97687;-79
2023/04/24 09:52:03;;;;;;;6.50;4.80;;;;;;;20.60;49.45;99584.73;106088;1259;96528;-79
2023/04/24 09:54:54;;;;;;;7.00;5.60;;;;;;;20.68;49.18;99583.69;106126;1256;96641;-80
2023/04/24 09:57:54;;;;;;;6.50;4.80;;;;;;;20.77;48.22;99580.50;105657;1261;101246;-78
2023/04/24 10:00:40;;;;;;;7.00;5.30;;;;;;;20.81;48.91;99574.11;106129;1256;99057;-79
2023/04/24 10:03:30;;;;;;;8.90;5.30;;;;;;;20.87;48.22;99573.66;106286;1256;99012;-80
2023/04/24 10:06:16;;;;;;;9.30;5.30;;;;;;;20.93;47.52;99567.27;106230;1256;96630;-80
2023/04/24 10:09:03;;;;;;;7.20;5.00;;;;;;;20.98;46.87;99562.02;106133;1256;96576;-79
2023/04/24 10:11:50;;;;;;;6.80;5.00;;;;;;;21.02;47.46;99555.70;105683;1261;99998;-84
2023/04/24 10:14:36;;;;;;;8.70;5.50;;;;;;;21.04;46.50;99555.46;106284;1256;100318;-78
2023/04/24 10:17:24;;;;;;;8.40;5.70;;;;;;;21.01;46.35;99555.14;106218;1256;98905;-87
2023/04/24 10:20:10;;;;;;;9.00;5.10;;;;;;;20.96;46.89;99553.41;106867;1255;96613;-86
2023/04/24 10:22:57;;;;;;;8.50;5.20;;;;;;;20.97;47.41;99552.71;106165;1261;96606;-87
2023/04/24 10:25:43;;;;;;;6.50;5.30;;;;;;;21.05;47.52;99552.15;107373;1257;99974;-87
2023/04/24 10:28:31;;;;;;;14.70;5.90;;;;;;;21.20;47.81;99549.45;106305;1257;99788;-86
2023/04/24 10:31:19;;;;;;;7.90;5.50;;;;;;;21.43;48.54;99547.88;105902;1262;100230;-85
2023/04/24 10:34:06;;;;;;;7.30;5.40;;;;;;;21.66;48.25;99548.77;106419;1259;96567;-87
2023/04/24 10:36:53;;;;;;;10.50;5.10;;;;;;;21.83;47.67;99546.52;106196;1262;96741;-83
2023/04/24 10:39:40;;;;;;;9.50;5.40;;;;;;;21.95;46.58;99544.46;106101;1258;100045;-86
2023/04/24 10:42:28;;;;;;;8.40;5.50;;;;;;;21.97;45.73;99542.41;105991;1257;100483;-78
2023/04/24 10:45:21;;;;;;;14.90;6.20;;;;;;;21.87;45.56;99542.17;105633;1262;98324;-79
2023/04/24 10:48:13;;;;;;;6.70;4.80;;;;;;;21.78;45.94;99538.80;105615;1261;96693;-78
2023/04/24 10:50:58;;;;;;;6.50;5.60;;;;;;;21.72;46.02;99538.19;105696;1259;97134;-78
2023/04/24 10:53:44;;;;;;;8.60;5.40;;;;;;;21.66;46.32;99535.85;105538;1262;99988;-77
2023/04/24 10:56:29;;;;;;;6.30;4.90;;;;;;;21.64;46.02;99535.92;106032;1256;99133;-78
2023/04/24 10:59:25;;;;;;;7.90;5.50;;;;;;;21.68;46.23;99537.46;106228;1257;97841;-79
2023/04/24 11:02:10;;;;;;;9.60;5.50;;;;;;;21.74;46.27;99528.47;106100;1258;97070;-79
2023/04/24 11:04:56;;;;;;;9.60;5.00;;;;;;;21.76;45.94;99532.39;106246;1258;96610;-79
2023/04/24 11:08:13;;;;;;;7.80;4.30;;;;;;;21.71;44.51;99528.55;106309;1258;99990;-79
2023/04/24 11:10:58;;;;;;;6.80;3.90;;;;;;;21.60;43.28;99533.05;106326;1262;99671;-81
2023/04/24 11:13:53;;;;;;;8.30;4.40;;;;;;;21.43;42.10;99539.71;106634;1257;99002;-86
2023/04/24 11:16:52;;;;;;;6.10;3.30;;;;;;;21.31;41.67;99539.46;106926;1257;96342;-88
2023/04/24 11:19:51;;;;;;;8.40;3.70;;;;;;;21.20;41.52;99538.06;106606;1258;96572;-88
2023/04/24 11:22:41;;;;;;;5.40;3.60;;;;;;;21.08;41.49;99540.27;106674;1257;101646;-88
2023/04/24 11:25:30;;;;;;;9.10;4.40;;;;;;;20.99;42.19;99541.86;106341;1257;99721;-87
2023/04/24 11:28:16;;;;;;;5.20;4.60;;;;;;;21.03;43.78;99534.61;106339;1262;97839;-89
2023/04/24 11:31:38;;;;;;;5.40;4.80;;;;;;;21.17;44.20;99531.83;106531;1258;96673;-89
2023/04/24 11:34:24;;;;;;;7.40;4.60;;;;;;;21.29;43.72;99531.64;106190;1259;96662;-82
2023/04/24 11:37:10;;;;;;;10.00;5.80;;;;;;;21.42;44.53;99524.08;106538;1257;99966;-82
2023/04/24 11:39:58;;;;;;;8.70;5.70;;;;;;;21.60;45.01;99520.14;106495;1262;100358;-82
2023/04/24 11:42:45;;;;;;;8.40;6.00;;;;;;;21.79;44.96;99515.63;106330;1262;97721;-81
2023/04/24 11:45:31;;;;;;;12.10;6.10;;;;;;;21.97;44.49;99512.45;106519;1257;96614;-81
2023/04/24 11:48:20;;;;;;;10.50;5.40;;;;;;;22.09;44.57;99506.20;106425;1257;96969;-82
2023/04/24 11:51:06;;;;;;;8.50;5.20;;;;;;;22.24;44.22;99506.33;106500;1262;99999;-81
2023/04/24 11:53:56;;;;;;;9.00;6.00;;;;;;;22.34;44.07;99502.50;106339;1262;99106;-82
2023/04/24 11:56:46;;;;;;;9.20;6.30;;;;;;;22.40;43.38;99497.30;106437;1257;97732;-81
2023/04/24 11:59:36;;;;;;;7.90;5.80;;;;;;;22.50;43.63;99488.98;106789;1257;96533;-82
2023/04/24 12:02:27;;;;;;;13.00;6.50;;;;;;;22.62;43.85;99483.25;106575;1257;96707;-83
2023/04/24 12:05:23;;;;;;;7.50;6.10;;;;;;;22.78;43.11;99483.05;106625;1257;109271;-82
2023/04/24 12:08:09;;;;;;;10.90;6.00;;;;;;;22.89;43.21;99476.93;106756;1257;99092;-83
2023/04/24 12:10:54;;;;;;;9.10;5.90;;;;;;;22.99;43.29;99478.00;106524;1261;98612;-83
2023/04/24 12:13:40;;;;;;;9.40;6.30;;;;;;;23.07;42.45;99473.19;106524;1257;97101;-83
2023/04/24 12:16:26;;;;;;;9.40;6.30;;;;;;;23.10;42.67;99473.86;106379;1262;96613;-83
2023/04/24 12:19:11;;;;;;;8.30;6.30;;;;;;;23.11;42.91;99473.52;106622;1257;99992;-82
2023/04/24 12:22:05;;;;;;;8.20;6.70;;;;;;;23.11;42.42;99469.95;106527;1257;99145;-81
2023/04/24 12:25:10;;;;;;;10.80;6.40;;;;;;;23.06;41.91;99471.61;107244;1257;97853;-82
2023/04/24 12:28:12;;;;;;;8.90;5.60;;;;;;;22.99;41.75;99470.35;106835;1257;96530;-82
2023/04/24 12:30:57;;;;;;;6.30;5.60;;;;;;;22.88;41.84;99467.83;106791;1257;96526;-82
2023/04/24 12:33:43;;;;;;;11.20;6.30;;;;;;;22.74;41.35;99464.64;106737;1257;100430;-81
2023/04/24 12:36:29;;;;;;;10.40;6.50;;;;;;;22.62;41.48;99463.48;106511;1257;99785;-82
2023/04/24 12:39:19;;;;;;;6.60;5.90;;;;;;;22.52;42.12;99465.83;106498;1259;98522;-81
2023/04/24 12:42:05;;;;;;;8.70;5.60;;;;;;;22.38;42.66;99460.42;106161;1257;97513;-81
2023/04/24 12:44:56;;;;;;;8.10;4.80;;;;;;;22.18;41.25;99463.11;106407;1260;97040;-81
2023/04/24 12:47:43;;;;;;;4.80;3.90;;;;;;;21.94;39.24;99477.77;106569;1257;101701;-81
2023/04/24 12:50:29;;;;;;;5.50;3.80;;;;;;;21.69;38.65;99476.08;106592;1258;99199;-82
2023/04/24 12:53:15;;;;;;;8.50;4.30;;;;;;;21.51;40.05;99472.24;106443;1257;97693;-81
2023/04/24 12:56:00;;;;;;;6.60;3.90;;;;;;;21.10;41.95;99474.66;106507;1262;96537;-80
2023/04/24 12:58:46;;;;;;;5.40;3.80;;;;;;;20.53;43.11;99496.82;106577;1257;97155;-79